Time;durP1;ratioP1;P1;durP2;ratioP2;P2;SDS_P1;SDS_P2;PMS_P1;PMS_P2;Temp;Humidity;BMP_temperature;BMP_pressure;BME280_temperature;BME280_humidity;BME280_pressure;Samples;Min_cycle;Max_cycle;Signal;HPM_P1;HPM_P2
2022/01/10 00:02:03;;;;;;;42.08;5.68;;;;;;;;;;5053477;28;20047;-61
2022/01/10 00:04:29;;;;;;;37.58;6.15;;;;;;;;;;5072156;28;20131;-61
2022/01/10 00:06:55;;;;;;;34.05;4.97;;;;;;;;;;5056601;28;20048;-61
2022/01/10 00:09:21;;;;;;;38.45;5.15;;;;;;;;;;5057465;28;20102;-61
2022/01/10 00:11:47;;;;;;;39.55;5.35;;;;;;;;;;5077358;28;20127;-62
2022/01/10 00:14:14;;;;;;;33.08;5.30;;;;;;;;;;5071537;28;20040;-61
2022/01/10 00:16:40;;;;;;;40.83;6.30;;;;;;;;;;5075602;28;20044;-62
2022/01/10 00:19:06;;;;;;;44.00;6.00;;;;;;;;;;5086564;28;20091;-61
2022/01/10 00:21:33;;;;;;;28.05;5.45;;;;;;;;;;5057543;28;20090;-61
2022/01/10 00:23:59;;;;;;;41.78;6.00;;;;;;;;;;5092389;28;20036;-62
2022/01/10 00:26:25;;;;;;;35.45;5.68;;;;;;;;;;5096865;28;20136;-62
2022/01/10 00:28:51;;;;;;;44.08;6.85;;;;;;;;;;5089115;28;20156;-61
2022/01/10 00:31:18;;;;;;;38.47;6.18;;;;;;;;;;5091002;28;20105;-60
2022/01/10 00:33:44;;;;;;;38.80;5.75;;;;;;;;;;5090897;28;20849;-61
2022/01/10 00:36:11;;;;;;;34.67;5.65;;;;;;;;;;5090628;28;20044;-62
2022/01/10 00:38:37;;;;;;;42.90;7.15;;;;;;;;;;5100086;28;20071;-61
2022/01/10 00:41:04;;;;;;;42.78;6.43;;;;;;;;;;5102126;28;20044;-62
2022/01/10 00:43:39;;;;;;;45.83;6.88;;;;;;;;;;5080764;28;20040;-61
2022/01/10 00:46:05;;;;;;;38.83;6.45;;;;;;;;;;5101074;28;20115;-61
2022/01/10 00:48:32;;;;;;;30.23;6.13;;;;;;;;;;5095686;28;20057;-62
2022/01/10 00:50:58;;;;;;;34.60;6.80;;;;;;;;;;5092744;28;20255;-62
2022/01/10 00:53:25;;;;;;;31.95;6.75;;;;;;;;;;5082287;28;20083;-63
2022/01/10 00:55:51;;;;;;;37.35;6.82;;;;;;;;;;5063648;28;20039;-62
2022/01/10 00:58:17;;;;;;;36.80;7.43;;;;;;;;;;5079497;28;20036;-61
2022/01/10 01:00:43;;;;;;;40.13;7.65;;;;;;;;;;5058205;28;20052;-62
2022/01/10 01:03:10;;;;;;;42.67;7.47;;;;;;;;;;5064237;28;20035;-62
2022/01/10 01:05:41;;;;;;;43.97;8.38;;;;;;;;;;5098744;28;20055;-63
2022/01/10 01:08:08;;;;;;;42.72;7.85;;;;;;;;;;5083286;28;20048;-62
2022/01/10 01:15:56;;;;;;;40.65;9.07;;;;;;;;;;5078782;28;20059;-63
2022/01/10 01:18:46;;;;;;;53.88;10.25;;;;;;;;;;5077992;28;20502;-63
2022/01/10 01:24:06;;;;;;;37.70;9.63;;;;;;;;;;5076835;28;20169;-63
2022/01/10 01:26:43;;;;;;;39.03;8.90;;;;;;;;;;5062664;28;20044;-63
2022/01/10 01:29:11;;;;;;;54.00;10.52;;;;;;;;;;5095211;28;20622;-63
2022/01/10 01:31:37;;;;;;;42.80;8.68;;;;;;;;;;5058495;28;20199;-62
2022/01/10 01:34:04;;;;;;;47.75;10.80;;;;;;;;;;5093282;28;20028;-63
2022/01/10 01:36:32;;;;;;;52.47;11.50;;;;;;;;;;5096932;28;20066;-64
2022/01/10 01:38:58;;;;;;;50.75;10.45;;;;;;;;;;5080529;28;20436;-63
2022/01/10 01:41:37;;;;;;;64.28;11.45;;;;;;;;;;5099442;28;20052;-62
2022/01/10 01:44:04;;;;;;;46.78;10.55;;;;;;;;;;5078707;28;20043;-63
2022/01/10 01:46:33;;;;;;;47.10;10.77;;;;;;;;;;5077286;28;20550;-63
2022/01/10 01:48:59;;;;;;;54.38;11.75;;;;;;;;;;5063303;28;20040;-63
2022/01/10 01:51:25;;;;;;;52.75;12.35;;;;;;;;;;5059862;28;20071;-64
2022/01/10 01:53:52;;;;;;;48.97;12.63;;;;;;;;;;5076901;28;20044;-62
2022/01/10 01:56:19;;;;;;;56.58;13.65;;;;;;;;;;5094733;28;20047;-63
2022/01/10 01:58:46;;;;;;;44.97;12.00;;;;;;;;;;5077274;28;20051;-68
2022/01/10 02:01:16;;;;;;;54.20;13.18;;;;;;;;;;5067496;28;20093;-61
2022/01/10 02:03:42;;;;;;;41.60;12.90;;;;;;;;;;5095548;28;20122;-63
2022/01/10 02:06:09;;;;;;;57.22;14.25;;;;;;;;;;5063971;28;20048;-62
2022/01/10 02:08:36;;;;;;;71.70;17.90;;;;;;;;;;5079552;28;20484;-61
2022/01/10 02:11:02;;;;;;;66.40;15.52;;;;;;;;;;5061122;28;20035;-62
2022/01/10 02:13:28;;;;;;;58.13;17.02;;;;;;;;;;5099262;28;20036;-60
2022/01/10 02:16:01;;;;;;;51.63;16.95;;;;;;;;;;5092573;28;20027;-62
2022/01/10 02:18:27;;;;;;;64.82;16.77;;;;;;;;;;5076951;28;20190;-63
2022/01/10 02:20:53;;;;;;;62.80;17.52;;;;;;;;;;5062746;28;20047;-62
2022/01/10 02:23:20;;;;;;;55.17;16.77;;;;;;;;;;5080118;28;20036;-62
2022/01/10 02:25:46;;;;;;;67.97;18.10;;;;;;;;;;5082398;28;20059;-61
2022/01/10 02:28:13;;;;;;;61.63;16.17;;;;;;;;;;5098426;28;20056;-62
2022/01/10 02:30:40;;;;;;;73.97;19.42;;;;;;;;;;5096248;28;20050;-62
2022/01/10 02:33:06;;;;;;;63.95;18.90;;;;;;;;;;5076520;28;20032;-63
2022/01/10 02:35:38;;;;;;;71.15;19.55;;;;;;;;;;5050626;28;20052;-63
2022/01/10 02:38:05;;;;;;;76.20;20.98;;;;;;;;;;5094823;28;20118;-61
2022/01/10 02:40:32;;;;;;;74.80;19.88;;;;;;;;;;5059880;28;20258;-63
2022/01/10 02:42:59;;;;;;;77.05;20.15;;;;;;;;;;5075108;28;20381;-61
2022/01/10 02:45:25;;;;;;;56.13;19.13;;;;;;;;;;5080009;28;20122;-62
2022/01/10 02:47:51;;;;;;;71.32;18.05;;;;;;;;;;5093123;28;20100;-61
2022/01/10 02:50:18;;;;;;;55.33;16.70;;;;;;;;;;5098408;28;20501;-62
2022/01/10 02:52:44;;;;;;;48.75;16.60;;;;;;;;;;5094703;28;20047;-62
2022/01/10 02:55:12;;;;;;;54.78;15.95;;;;;;;;;;5080341;28;20040;-63
2022/01/10 02:57:39;;;;;;;57.55;17.33;;;;;;;;;;5098156;28;20104;-62
2022/01/10 03:00:11;;;;;;;61.63;17.75;;;;;;;;;;5078360;28;20036;-62
2022/01/10 03:02:37;;;;;;;48.97;16.85;;;;;;;;;;5095874;28;20067;-62
2022/01/10 03:05:05;;;;;;;57.05;17.67;;;;;;;;;;5073617;28;20378;-63
2022/01/10 03:07:31;;;;;;;62.45;18.15;;;;;;;;;;5046722;28;20036;-62
2022/01/10 03:09:57;;;;;;;61.55;18.88;;;;;;;;;;5074348;28;20036;-62
2022/01/10 03:12:24;;;;;;;63.47;19.30;;;;;;;;;;5091431;28;20101;-63
2022/01/10 03:14:50;;;;;;;71.25;19.20;;;;;;;;;;5076776;28;20082;-62
2022/01/10 03:17:16;;;;;;;75.22;19.30;;;;;;;;;;5098206;28;20032;-61
2022/01/10 03:19:43;;;;;;;82.80;21.50;;;;;;;;;;5092819;28;20063;-62
2022/01/10 03:22:09;;;;;;;82.43;22.00;;;;;;;;;;5077225;28;20058;-63
2022/01/10 03:24:36;;;;;;;77.55;21.05;;;;;;;;;;5075489;28;20032;-63
2022/01/10 03:27:02;;;;;;;68.82;20.42;;;;;;;;;;5077326;28;20051;-63
2022/01/10 03:29:28;;;;;;;65.45;18.90;;;;;;;;;;5075619;28;20182;-63
2022/01/10 03:31:54;;;;;;;71.97;20.92;;;;;;;;;;5078227;28;20083;-61
2022/01/10 03:34:21;;;;;;;66.90;19.80;;;;;;;;;;5094171;28;20070;-62
2022/01/10 03:36:47;;;;;;;51.13;15.70;;;;;;;;;;5079677;28;20091;-61
2022/01/10 03:39:13;;;;;;;65.25;19.17;;;;;;;;;;5078481;28;20043;-60
2022/01/10 03:41:40;;;;;;;76.13;21.73;;;;;;;;;;5073892;28;20047;-61
2022/01/10 03:44:06;;;;;;;65.05;20.38;;;;;;;;;;5092973;28;20110;-62
2022/01/10 03:46:33;;;;;;;72.32;21.58;;;;;;;;;;5077746;28;20134;-62
2022/01/10 03:49:00;;;;;;;70.53;21.30;;;;;;;;;;5090237;28;20118;-62
2022/01/10 03:51:26;;;;;;;68.63;21.02;;;;;;;;;;5089603;28;20040;-63
2022/01/10 03:53:52;;;;;;;85.45;22.85;;;;;;;;;;5096072;28;20027;-64
2022/01/10 03:56:19;;;;;;;67.93;20.38;;;;;;;;;;5080149;28;20105;-62
2022/01/10 03:58:45;;;;;;;89.63;22.88;;;;;;;;;;5073469;28;20032;-62
2022/01/10 04:01:12;;;;;;;70.10;21.55;;;;;;;;;;5058940;28;20096;-63
2022/01/10 04:03:39;;;;;;;76.55;21.73;;;;;;;;;;5094831;28;20047;-62
2022/01/10 04:06:06;;;;;;;74.90;21.35;;;;;;;;;;5076170;28;20068;-63
2022/01/10 04:08:32;;;;;;;80.88;22.40;;;;;;;;;;5076814;28;20445;-61
2022/01/10 04:10:58;;;;;;;60.30;18.98;;;;;;;;;;5081542;28;20083;-62
2022/01/10 04:13:24;;;;;;;69.55;20.45;;;;;;;;;;5059749;28;20405;-62
2022/01/10 04:15:50;;;;;;;67.90;19.92;;;;;;;;;;5092318;28;20059;-62
2022/01/10 04:18:16;;;;;;;65.97;19.80;;;;;;;;;;5076240;28;20035;-62
2022/01/10 04:20:43;;;;;;;67.28;20.65;;;;;;;;;;5079013;28;20109;-62
2022/01/10 04:23:09;;;;;;;67.45;19.88;;;;;;;;;;5092665;28;20119;-62
2022/01/10 04:25:35;;;;;;;65.47;22.05;;;;;;;;;;5050557;28;20117;-62
2022/01/10 04:28:01;;;;;;;69.40;21.08;;;;;;;;;;5092730;28;20028;-62
2022/01/10 04:30:28;;;;;;;56.78;18.17;;;;;;;;;;5092391;28;20040;-61
2022/01/10 04:32:54;;;;;;;62.08;20.42;;;;;;;;;;5094792;28;20413;-61
2022/01/10 04:35:20;;;;;;;58.92;21.60;;;;;;;;;;5076584;28;20097;-61
2022/01/10 04:37:46;;;;;;;57.45;19.25;;;;;;;;;;5072038;28;20043;-62
2022/01/10 04:40:12;;;;;;;61.65;20.98;;;;;;;;;;5092151;28;20038;-62
2022/01/10 04:42:39;;;;;;;66.03;21.13;;;;;;;;;;5072452;28;20611;-60
2022/01/10 04:45:05;;;;;;;55.20;19.38;;;;;;;;;;5080485;28;20050;-61
2022/01/10 04:47:31;;;;;;;64.68;19.98;;;;;;;;;;5078124;28;20489;-61
2022/01/10 04:52:26;;;;;;;78.03;22.67;;;;;;;;;;5077216;28;20066;-61
2022/01/10 04:54:53;;;;;;;61.58;21.58;;;;;;;;;;5073282;28;20036;-61
2022/01/10 04:57:19;;;;;;;72.28;23.67;;;;;;;;;;5090644;28;20039;-62
2022/01/10 04:59:45;;;;;;;63.58;22.20;;;;;;;;;;5092729;28;20032;-63
2022/01/10 05:02:11;;;;;;;69.53;22.48;;;;;;;;;;5090238;28;20354;-63
2022/01/10 05:04:38;;;;;;;66.22;23.10;;;;;;;;;;5079076;28;20147;-64
2022/01/10 05:07:04;;;;;;;65.53;21.50;;;;;;;;;;5092454;28;20044;-65
2022/01/10 05:09:30;;;;;;;81.57;25.88;;;;;;;;;;5059617;28;20117;-62
2022/01/10 05:11:58;;;;;;;68.32;21.92;;;;;;;;;;5072988;28;20123;-62
2022/01/10 05:14:24;;;;;;;68.40;23.67;;;;;;;;;;5091064;28;20723;-62
2022/01/10 05:16:50;;;;;;;77.25;23.38;;;;;;;;;;5070655;28;20086;-62
2022/01/10 05:19:16;;;;;;;82.85;25.05;;;;;;;;;;5073509;28;20505;-63
2022/01/10 05:21:42;;;;;;;84.45;25.55;;;;;;;;;;5076749;28;20153;-63
2022/01/10 05:24:09;;;;;;;74.60;24.40;;;;;;;;;;5074356;28;20059;-63
2022/01/10 05:26:35;;;;;;;75.32;25.42;;;;;;;;;;5078695;28;20510;-64
2022/01/10 05:29:02;;;;;;;94.47;28.45;;;;;;;;;;5080129;28;20398;-64
2022/01/10 05:31:29;;;;;;;89.03;27.40;;;;;;;;;;5080084;28;20036;-63
2022/01/10 05:33:55;;;;;;;118.30;30.05;;;;;;;;;;5076212;28;20031;-63
2022/01/10 05:36:22;;;;;;;95.03;29.38;;;;;;;;;;5062804;28;20062;-63
2022/01/10 05:38:49;;;;;;;99.05;28.85;;;;;;;;;;5064552;28;20114;-63
2022/01/10 05:41:15;;;;;;;95.80;29.67;;;;;;;;;;5077859;28;20370;-63
2022/01/10 05:43:41;;;;;;;105.32;30.70;;;;;;;;;;5057612;28;20051;-63
2022/01/10 05:46:09;;;;;;;90.53;26.85;;;;;;;;;;5076650;28;21364;-63
2022/01/10 05:48:35;;;;;;;101.13;28.65;;;;;;;;;;5083119;28;20044;-63
2022/01/10 05:51:01;;;;;;;105.65;29.25;;;;;;;;;;5080225;28;20054;-63
2022/01/10 05:53:28;;;;;;;113.22;31.77;;;;;;;;;;5062209;28;20040;-64
2022/01/10 05:55:54;;;;;;;99.53;30.00;;;;;;;;;;5058042;28;20409;-63
2022/01/10 05:58:20;;;;;;;103.55;33.13;;;;;;;;;;5091170;28;20079;-63
2022/01/10 06:00:47;;;;;;;102.03;31.02;;;;;;;;;;5076767;28;20576;-63
2022/01/10 06:03:13;;;;;;;94.18;32.45;;;;;;;;;;5075705;28;20113;-63
2022/01/10 06:05:39;;;;;;;104.20;31.83;;;;;;;;;;5063133;28;20043;-63
2022/01/10 06:08:06;;;;;;;101.50;31.48;;;;;;;;;;5075173;28;20055;-63
2022/01/10 06:10:32;;;;;;;136.05;37.38;;;;;;;;;;5079734;28;20112;-63
2022/01/10 06:12:59;;;;;;;105.60;34.83;;;;;;;;;;5074436;28;20278;-63
2022/01/10 06:15:25;;;;;;;135.52;36.45;;;;;;;;;;5077768;28;20461;-62
2022/01/10 06:17:51;;;;;;;121.40;35.50;;;;;;;;;;5079345;28;20185;-63
2022/01/10 06:20:18;;;;;;;144.65;37.75;;;;;;;;;;5072503;28;20056;-63
2022/01/10 06:22:45;;;;;;;105.70;32.83;;;;;;;;;;5071026;28;20333;-63
2022/01/10 06:25:12;;;;;;;99.75;33.45;;;;;;;;;;5069546;28;20085;-63
2022/01/10 06:27:38;;;;;;;129.18;36.30;;;;;;;;;;5076038;28;20040;-63
2022/01/10 06:30:05;;;;;;;130.20;37.15;;;;;;;;;;5078235;28;20043;-63
2022/01/10 06:32:31;;;;;;;136.40;38.10;;;;;;;;;;5073357;28;21787;-64
2022/01/10 06:34:57;;;;;;;112.35;36.55;;;;;;;;;;5072485;28;20082;-63
2022/01/10 06:37:24;;;;;;;129.07;36.65;;;;;;;;;;5071309;28;20410;-62
2022/01/10 06:39:50;;;;;;;121.93;36.72;;;;;;;;;;5060380;28;20040;-63
2022/01/10 06:42:16;;;;;;;127.85;37.70;;;;;;;;;;5073670;28;20056;-63
2022/01/10 06:44:43;;;;;;;125.90;38.60;;;;;;;;;;5075358;28;20131;-62
2022/01/10 06:47:09;;;;;;;133.57;38.38;;;;;;;;;;5079028;28;20044;-63
2022/01/10 06:49:35;;;;;;;125.60;38.17;;;;;;;;;;5072330;28;20513;-63
2022/01/10 06:52:08;;;;;;;122.85;38.33;;;;;;;;;;5075298;28;20044;-62
2022/01/10 06:54:34;;;;;;;121.28;37.95;;;;;;;;;;5077714;28;20043;-63
2022/01/10 06:57:02;;;;;;;123.57;40.33;;;;;;;;;;5077795;28;20048;-63
2022/01/10 06:59:29;;;;;;;120.95;41.55;;;;;;;;;;5075433;28;20052;-63
2022/01/10 07:01:57;;;;;;;156.80;44.95;;;;;;;;;;5075295;28;20036;-63
2022/01/10 07:04:23;;;;;;;127.15;39.72;;;;;;;;;;5078158;28;20040;-65
2022/01/10 07:06:50;;;;;;;128.57;41.88;;;;;;;;;;5076527;28;20565;-61
2022/01/10 07:09:16;;;;;;;144.25;44.60;;;;;;;;;;5073259;28;20063;-64
2022/01/10 07:11:42;;;;;;;147.95;43.40;;;;;;;;;;5078053;28;20082;-62
2022/01/10 07:14:08;;;;;;;138.60;45.20;;;;;;;;;;5072217;28;20496;-63
2022/01/10 07:16:34;;;;;;;132.90;42.35;;;;;;;;;;5076741;28;20031;-63
2022/01/10 07:19:01;;;;;;;156.35;46.13;;;;;;;;;;5076652;28;20580;-63
2022/01/10 07:21:27;;;;;;;157.63;48.95;;;;;;;;;;5079363;28;20047;-64
2022/01/10 07:23:53;;;;;;;159.63;47.45;;;;;;;;;;5099781;28;20043;-62
2022/01/10 07:26:20;;;;;;;158.63;46.03;;;;;;;;;;5099306;28;20052;-62
2022/01/10 07:28:52;;;;;;;161.23;47.30;;;;;;;;;;5079676;28;20046;-63
2022/01/10 07:31:18;;;;;;;150.07;49.08;;;;;;;;;;5103327;28;20546;-63
2022/01/10 07:33:44;;;;;;;176.05;52.03;;;;;;;;;;5077515;28;20389;-62
2022/01/10 07:36:10;;;;;;;164.48;50.65;;;;;;;;;;5081492;28;20349;-61
2022/01/10 07:38:36;;;;;;;177.30;53.42;;;;;;;;;;5091035;28;20043;-61
2022/01/10 07:41:03;;;;;;;196.05;56.47;;;;;;;;;;5089488;28;20055;-61
2022/01/10 07:43:30;;;;;;;200.75;59.03;;;;;;;;;;5065427;28;20117;-64
2022/01/10 07:45:56;;;;;;;188.27;57.30;;;;;;;;;;5108525;28;20381;-63
2022/01/10 07:48:22;;;;;;;183.82;56.33;;;;;;;;;;5108139;28;20072;-64
2022/01/10 07:50:48;;;;;;;185.25;56.63;;;;;;;;;;5108223;28;20103;-63
2022/01/10 07:53:14;;;;;;;197.95;59.75;;;;;;;;;;5090413;28;20036;-63
2022/01/10 07:55:40;;;;;;;198.38;57.47;;;;;;;;;;5097938;28;20047;-63
2022/01/10 07:58:06;;;;;;;220.00;62.10;;;;;;;;;;5079639;28;20569;-62
2022/01/10 08:00:32;;;;;;;212.57;63.53;;;;;;;;;;5096228;28;20035;-63
2022/01/10 08:02:58;;;;;;;225.85;64.80;;;;;;;;;;5063119;28;20065;-63
2022/01/10 08:05:24;;;;;;;221.90;63.85;;;;;;;;;;5090054;28;20032;-63
2022/01/10 08:07:50;;;;;;;205.10;66.15;;;;;;;;;;5090426;28;20059;-63
2022/01/10 08:10:17;;;;;;;239.65;71.80;;;;;;;;;;5069935;28;20039;-63
2022/01/10 08:12:43;;;;;;;244.05;72.40;;;;;;;;;;5078622;28;20132;-63
2022/01/10 08:15:09;;;;;;;240.52;72.03;;;;;;;;;;5076951;28;20116;-62
2022/01/10 08:17:36;;;;;;;235.10;71.18;;;;;;;;;;5096626;28;20046;-62
2022/01/10 08:20:03;;;;;;;233.80;68.75;;;;;;;;;;5098310;28;20390;-62
2022/01/10 08:22:29;;;;;;;259.77;75.75;;;;;;;;;;5095127;28;20118;-62
2022/01/10 08:24:55;;;;;;;232.30;71.55;;;;;;;;;;5076070;28;20043;-62
2022/01/10 08:27:21;;;;;;;232.55;73.00;;;;;;;;;;5094841;28;20032;-62
2022/01/10 08:29:48;;;;;;;263.15;79.45;;;;;;;;;;5082727;28;20063;-62
2022/01/10 08:32:14;;;;;;;224.43;74.55;;;;;;;;;;5090768;28;20048;-62
2022/01/10 08:34:41;;;;;;;241.77;78.65;;;;;;;;;;5062733;28;20047;-63
2022/01/10 08:37:07;;;;;;;263.15;83.00;;;;;;;;;;5061731;28;20055;-63
2022/01/10 08:39:33;;;;;;;268.92;82.45;;;;;;;;;;5077993;28;20573;-62
2022/01/10 08:41:59;;;;;;;237.90;82.28;;;;;;;;;;5095149;28;20118;-62
2022/01/10 08:44:26;;;;;;;241.77;81.88;;;;;;;;;;5074990;28;20485;-62
2022/01/10 08:46:53;;;;;;;247.50;82.30;;;;;;;;;;5094917;28;20434;-62
2022/01/10 08:49:19;;;;;;;194.27;76.30;;;;;;;;;;5080091;28;20141;-63
2022/01/10 08:51:46;;;;;;;236.07;79.95;;;;;;;;;;5079583;28;20474;-62
2022/01/10 08:54:13;;;;;;;245.32;81.32;;;;;;;;;;5094905;28;20054;-62
2022/01/10 08:56:39;;;;;;;236.48;80.43;;;;;;;;;;5054714;28;20051;-62
2022/01/10 08:59:05;;;;;;;238.38;83.28;;;;;;;;;;5099414;28;20027;-62
2022/01/10 09:01:32;;;;;;;210.40;78.90;;;;;;;;;;5081917;28;20043;-63
2022/01/10 09:03:59;;;;;;;177.82;73.03;;;;;;;;;;5063286;28;20031;-62
2022/01/10 09:06:26;;;;;;;195.18;74.90;;;;;;;;;;5078986;28;20455;-63
2022/01/10 09:08:53;;;;;;;188.88;73.45;;;;;;;;;;5092038;28;20039;-62
2022/01/10 09:11:19;;;;;;;178.88;72.80;;;;;;;;;;5086712;28;20114;-62
2022/01/10 09:13:48;;;;;;;196.15;80.85;;;;;;;;;;5107078;28;20101;-60
2022/01/10 09:16:14;;;;;;;221.43;83.05;;;;;;;;;;5101222;28;20055;-63
2022/01/10 09:18:41;;;;;;;193.30;80.78;;;;;;;;;;5064620;28;20043;-61
2022/01/10 09:21:08;;;;;;;206.23;82.63;;;;;;;;;;5077858;28;20052;-61
2022/01/10 09:23:34;;;;;;;220.43;84.72;;;;;;;;;;5100617;28;20318;-61
2022/01/10 09:26:00;;;;;;;217.23;86.18;;;;;;;;;;5101023;28;20087;-62
2022/01/10 09:28:26;;;;;;;225.05;88.18;;;;;;;;;;5063317;28;20036;-62
2022/01/10 09:30:52;;;;;;;208.82;79.20;;;;;;;;;;5080812;28;20101;-63
2022/01/10 09:33:18;;;;;;;180.18;78.28;;;;;;;;;;5097701;28;20051;-64
2022/01/10 09:35:44;;;;;;;200.15;81.78;;;;;;;;;;5065010;28;20078;-63
2022/01/10 09:38:11;;;;;;;206.88;81.43;;;;;;;;;;5082502;28;20036;-63
2022/01/10 09:40:38;;;;;;;176.57;77.05;;;;;;;;;;5053929;28;20036;-62
2022/01/10 09:43:04;;;;;;;153.00;69.75;;;;;;;;;;5081540;28;20408;-63
2022/01/10 09:45:31;;;;;;;179.65;79.40;;;;;;;;;;5065441;28;20061;-63
2022/01/10 09:48:00;;;;;;;158.05;72.80;;;;;;;;;;5077210;28;20114;-64
2022/01/10 09:50:26;;;;;;;156.20;71.05;;;;;;;;;;5065482;28;20050;-63
2022/01/10 09:52:52;;;;;;;159.13;71.55;;;;;;;;;;5083222;28;20081;-62
2022/01/10 09:55:18;;;;;;;160.35;74.20;;;;;;;;;;5096542;28;20042;-62
2022/01/10 09:57:45;;;;;;;170.55;75.93;;;;;;;;;;5065230;28;20577;-62
2022/01/10 10:00:12;;;;;;;147.13;66.35;;;;;;;;;;5098656;28;20281;-62
2022/01/10 10:02:40;;;;;;;153.05;68.63;;;;;;;;;;5086751;28;20115;-62
2022/01/10 10:05:08;;;;;;;147.30;63.80;;;;;;;;;;5078544;28;20097;-62
2022/01/10 10:07:36;;;;;;;142.88;65.18;;;;;;;;;;5098217;28;20039;-61
2022/01/10 10:10:11;;;;;;;128.43;63.47;;;;;;;;;;5100848;28;20039;-62
2022/01/10 10:12:38;;;;;;;129.57;64.55;;;;;;;;;;5099384;28;20040;-63
2022/01/10 10:15:06;;;;;;;142.23;66.75;;;;;;;;;;5081424;28;20035;-63
2022/01/10 10:17:34;;;;;;;118.80;60.92;;;;;;;;;;5079781;28;20044;-63
2022/01/10 10:20:00;;;;;;;105.10;54.63;;;;;;;;;;5080035;28;20114;-64
2022/01/10 10:22:26;;;;;;;103.82;56.42;;;;;;;;;;5054728;28;20048;-62
2022/01/10 10:24:52;;;;;;;81.88;46.58;;;;;;;;;;5079055;28;20046;-62
2022/01/10 10:27:21;;;;;;;77.07;44.10;;;;;;;;;;5078604;28;20075;-62
2022/01/10 10:29:48;;;;;;;56.67;36.33;;;;;;;;;;5100682;28;20047;-62
2022/01/10 10:32:17;;;;;;;60.13;36.05;;;;;;;;;;5081311;28;20397;-62
2022/01/10 10:34:43;;;;;;;51.35;34.03;;;;;;;;;;5064183;28;20188;-63
2022/01/10 10:37:11;;;;;;;50.55;30.70;;;;;;;;;;5063591;28;20124;-63
2022/01/10 10:39:39;;;;;;;86.38;36.08;;;;;;;;;;5077496;28;20039;-61
2022/01/10 10:42:07;;;;;;;52.38;31.27;;;;;;;;;;5063097;28;20268;-63
2022/01/10 10:44:33;;;;;;;48.85;29.63;;;;;;;;;;5080074;28;20047;-64
2022/01/10 10:47:00;;;;;;;38.38;22.05;;;;;;;;;;5078383;28;20392;-63
2022/01/10 10:49:33;;;;;;;41.20;23.48;;;;;;;;;;5099393;28;20059;-62
2022/01/10 10:52:01;;;;;;;39.80;22.42;;;;;;;;;;5074535;28;20115;-63
2022/01/10 10:54:31;;;;;;;37.08;23.90;;;;;;;;;;5078730;28;20038;-62
2022/01/10 10:56:58;;;;;;;35.30;21.30;;;;;;;;;;5098925;28;20047;-63
2022/01/10 10:59:29;;;;;;;31.40;21.13;;;;;;;;;;5079943;28;20166;-62
2022/01/10 11:01:55;;;;;;;34.00;19.90;;;;;;;;;;5069158;28;20042;-63
2022/01/10 11:04:22;;;;;;;37.53;22.45;;;;;;;;;;5079527;28;20201;-63
2022/01/10 11:06:48;;;;;;;35.95;19.70;;;;;;;;;;5081849;28;20082;-62
2022/01/10 11:09:15;;;;;;;33.58;19.38;;;;;;;;;;5071086;28;20040;-63
2022/01/10 11:11:41;;;;;;;32.85;18.52;;;;;;;;;;5079093;28;20040;-62
2022/01/10 11:14:10;;;;;;;35.28;20.50;;;;;;;;;;5080914;28;20070;-62
2022/01/10 11:16:38;;;;;;;30.40;17.58;;;;;;;;;;5090289;28;20052;-62
2022/01/10 11:19:11;;;;;;;28.17;17.85;;;;;;;;;;5072057;28;20424;-62
2022/01/10 11:21:39;;;;;;;26.55;17.73;;;;;;;;;;5068993;28;20051;-62
2022/01/10 11:24:06;;;;;;;26.73;16.90;;;;;;;;;;5053305;28;20079;-62
2022/01/10 11:26:45;;;;;;;31.17;16.95;;;;;;;;;;5070131;28;20091;-62
2022/01/10 11:29:11;;;;;;;33.90;19.05;;;;;;;;;;5090167;28;20058;-62
2022/01/10 11:31:41;;;;;;;31.00;17.95;;;;;;;;;;5098167;28;20054;-63
2022/01/10 11:34:07;;;;;;;29.20;17.05;;;;;;;;;;5075039;28;20048;-63
2022/01/10 11:36:33;;;;;;;30.10;18.02;;;;;;;;;;5084116;27;20040;-63
2022/01/10 11:39:00;;;;;;;37.85;18.15;;;;;;;;;;5063065;28;20031;-62
2022/01/10 11:41:33;;;;;;;34.58;19.58;;;;;;;;;;5091742;28;20039;-62
2022/01/10 11:44:17;;;;;;;29.37;16.83;;;;;;;;;;5060567;28;20043;-62
2022/01/10 11:46:44;;;;;;;31.25;17.85;;;;;;;;;;5078364;28;20055;-62
2022/01/10 11:49:15;;;;;;;31.08;17.65;;;;;;;;;;5070219;28;20040;-63
2022/01/10 11:51:49;;;;;;;26.42;17.33;;;;;;;;;;5069285;28;20048;-63
2022/01/10 11:54:26;;;;;;;28.77;16.30;;;;;;;;;;5087699;28;20537;-62
2022/01/10 11:56:57;;;;;;;27.92;17.00;;;;;;;;;;5069460;28;20040;-62
2022/01/10 11:59:25;;;;;;;29.10;15.02;;;;;;;;;;5087626;28;20047;-62
2022/01/10 12:01:53;;;;;;;30.42;17.98;;;;;;;;;;5069260;28;20043;-62
2022/01/10 12:04:22;;;;;;;27.77;15.15;;;;;;;;;;5089005;28;20485;-63
2022/01/10 12:06:48;;;;;;;23.85;13.68;;;;;;;;;;5068922;28;20048;-61
2022/01/10 12:09:15;;;;;;;23.17;12.88;;;;;;;;;;5087757;28;20086;-61
2022/01/10 12:11:44;;;;;;;27.60;15.88;;;;;;;;;;5068885;28;20551;-61
2022/01/10 12:14:11;;;;;;;25.15;13.25;;;;;;;;;;5087518;28;20044;-61
2022/01/10 12:16:38;;;;;;;24.30;13.25;;;;;;;;;;5087932;28;20048;-62
2022/01/10 12:19:05;;;;;;;24.33;13.40;;;;;;;;;;5069166;28;20052;-61
2022/01/10 12:21:31;;;;;;;23.23;13.45;;;;;;;;;;5069811;28;20113;-62
2022/01/10 12:23:58;;;;;;;26.38;14.73;;;;;;;;;;5069159;28;20043;-61
2022/01/10 12:26:25;;;;;;;24.25;12.63;;;;;;;;;;5069625;28;20397;-62
2022/01/10 12:28:52;;;;;;;24.20;12.30;;;;;;;;;;5036398;28;20036;-62
2022/01/10 12:31:20;;;;;;;24.15;13.95;;;;;;;;;;5069139;28;20158;-62
2022/01/10 12:33:46;;;;;;;26.95;13.43;;;;;;;;;;5071055;28;20043;-62
2022/01/10 12:36:12;;;;;;;20.55;12.00;;;;;;;;;;5092849;27;20234;-62
2022/01/10 12:38:39;;;;;;;23.70;12.48;;;;;;;;;;5131889;27;20039;-62
2022/01/10 12:41:06;;;;;;;21.33;11.88;;;;;;;;;;5113919;27;20039;-61
2022/01/10 12:43:32;;;;;;;26.73;14.02;;;;;;;;;;5076524;28;20071;-61
2022/01/10 12:45:58;;;;;;;26.65;13.77;;;;;;;;;;5072792;28;20040;-63
2022/01/10 12:48:25;;;;;;;20.42;12.07;;;;;;;;;;5090705;28;20036;-62
2022/01/10 12:50:54;;;;;;;21.17;12.35;;;;;;;;;;5056348;28;20040;-63
2022/01/10 12:53:21;;;;;;;28.00;14.27;;;;;;;;;;5090982;28;20047;-62
2022/01/10 12:55:47;;;;;;;27.95;14.45;;;;;;;;;;5073461;28;20807;-62
2022/01/10 12:58:14;;;;;;;28.95;13.40;;;;;;;;;;5073568;28;20040;-62
2022/01/10 13:00:40;;;;;;;21.80;12.65;;;;;;;;;;5092510;28;20032;-62
2022/01/10 13:03:07;;;;;;;31.83;15.13;;;;;;;;;;5057491;28;20123;-62
2022/01/10 13:05:34;;;;;;;27.70;14.52;;;;;;;;;;5091173;28;20130;-60
2022/01/10 13:08:01;;;;;;;28.92;14.00;;;;;;;;;;5055952;28;20130;-61
2022/01/10 13:10:35;;;;;;;25.35;11.35;;;;;;;;;;5091608;28;20043;-62
2022/01/10 13:13:02;;;;;;;24.08;10.88;;;;;;;;;;5073089;28;20126;-62
2022/01/10 13:15:39;;;;;;;22.30;10.25;;;;;;;;;;5091359;28;20503;-63
2022/01/10 13:18:05;;;;;;;24.52;10.65;;;;;;;;;;5056488;28;20036;-62
2022/01/10 13:20:33;;;;;;;24.35;11.05;;;;;;;;;;5072907;28;20055;-62
2022/01/10 13:23:01;;;;;;;22.73;11.38;;;;;;;;;;5092340;28;20044;-60
2022/01/10 13:25:31;;;;;;;21.40;10.70;;;;;;;;;;5072265;28;20055;-62
2022/01/10 13:28:08;;;;;;;23.20;10.77;;;;;;;;;;5072416;28;20048;-62
2022/01/10 13:30:35;;;;;;;23.23;9.77;;;;;;;;;;5071866;28;20048;-61
2022/01/10 13:33:07;;;;;;;23.17;9.75;;;;;;;;;;5072803;28;20481;-62
2022/01/10 13:35:34;;;;;;;21.45;10.55;;;;;;;;;;5072508;28;20040;-61
2022/01/10 13:38:10;;;;;;;20.33;9.45;;;;;;;;;;5104371;27;20400;-62
2022/01/10 13:40:42;;;;;;;22.45;9.73;;;;;;;;;;5113769;27;20039;-62
2022/01/10 13:43:10;;;;;;;24.38;10.80;;;;;;;;;;5081603;28;20086;-62
2022/01/10 13:45:51;;;;;;;22.27;10.57;;;;;;;;;;5070580;28;20063;-62
2022/01/10 13:48:26;;;;;;;25.63;9.55;;;;;;;;;;5071761;28;20044;-60
2022/01/10 13:50:54;;;;;;;25.23;10.60;;;;;;;;;;5090391;28;20075;-61
2022/01/10 13:53:28;;;;;;;25.45;10.05;;;;;;;;;;5072080;28;20047;-61
2022/01/10 13:56:06;;;;;;;21.80;9.68;;;;;;;;;;5072291;28;20040;-60
2022/01/10 13:58:33;;;;;;;23.05;10.43;;;;;;;;;;5091015;28;20432;-60
2022/01/10 14:01:01;;;;;;;18.80;9.32;;;;;;;;;;5073540;28;20129;-62
2022/01/10 14:03:28;;;;;;;23.60;9.88;;;;;;;;;;5054658;28;20507;-62
2022/01/10 14:06:11;;;;;;;24.60;10.05;;;;;;;;;;5089549;28;20032;-62
2022/01/10 14:08:38;;;;;;;23.35;10.45;;;;;;;;;;5054941;28;20121;-62
2022/01/10 14:11:05;;;;;;;24.45;10.38;;;;;;;;;;5090376;28;20043;-63
2022/01/10 14:13:31;;;;;;;29.17;11.68;;;;;;;;;;5071806;28;20055;-62
2022/01/10 14:15:58;;;;;;;23.35;11.63;;;;;;;;;;5089458;28;20036;-63
2022/01/10 14:18:24;;;;;;;25.55;12.45;;;;;;;;;;5071391;28;20536;-62
2022/01/10 14:20:50;;;;;;;28.40;13.43;;;;;;;;;;5089107;28;20056;-62
2022/01/10 14:23:19;;;;;;;27.40;13.70;;;;;;;;;;5090244;28;20381;-62
2022/01/10 14:25:45;;;;;;;30.05;14.23;;;;;;;;;;5089240;28;20044;-62